sensor_id;sensor_type;location;lat;lon;timestamp;P1;durP1;ratioP1;P2;durP2;ratioP2
2023;SDS011;1016;48.770;9.154;2022-12-10T00:00:38;41.10;;;22.07;;
2023;SDS011;1016;48.770;9.154;2022-12-10T00:03:04;38.47;;;21.30;;
2023;SDS011;1016;48.770;9.154;2022-12-10T00:05:29;39.07;;;21.87;;
2023;SDS011;1016;48.770;9.154;2022-12-10T00:07:57;38.67;;;21.27;;
2023;SDS011;1016;48.770;9.154;2022-12-10T00:10:23;38.13;;;20.83;;
2023;SDS011;1016;48.770;9.154;2022-12-10T00:12:49;39.83;;;21.27;;
2023;SDS011;1016;48.770;9.154;2022-12-10T00:15:14;38.40;;;20.20;;
2023;SDS011;1016;48.770;9.154;2022-12-10T00:17:41;39.37;;;21.40;;
2023;SDS011;1016;48.770;9.154;2022-12-10T00:20:07;39.10;;;21.20;;
2023;SDS011;1016;48.770;9.154;2022-12-10T00:22:33;36.83;;;19.77;;
2023;SDS011;1016;48.770;9.154;2022-12-10T00:24:59;35.17;;;19.27;;
2023;SDS011;1016;48.770;9.154;2022-12-10T00:27:25;38.80;;;19.43;;
2023;SDS011;1016;48.770;9.154;2022-12-10T00:29:50;41.17;;;21.13;;
2023;SDS011;1016;48.770;9.154;2022-12-10T00:32:15;36.70;;;20.33;;
2023;SDS011;1016;48.770;9.154;2022-12-10T00:34:41;37.40;;;20.27;;
2023;SDS011;1016;48.770;9.154;2022-12-10T00:37:06;37.87;;;20.53;;
2023;SDS011;1016;48.770;9.154;2022-12-10T00:39:32;41.03;;;22.00;;
2023;SDS011;1016;48.770;9.154;2022-12-10T00:41:57;38.80;;;20.07;;
2023;SDS011;1016;48.770;9.154;2022-12-10T00:44:23;37.60;;;20.10;;
2023;SDS011;1016;48.770;9.154;2022-12-10T00:46:48;37.27;;;19.30;;
2023;SDS011;1016;48.770;9.154;2022-12-10T00:49:14;37.17;;;19.23;;
2023;SDS011;1016;48.770;9.154;2022-12-10T00:51:39;34.80;;;18.47;;
2023;SDS011;1016;48.770;9.154;2022-12-10T00:54:05;36.47;;;18.97;;
2023;SDS011;1016;48.770;9.154;2022-12-10T00:56:31;35.83;;;19.10;;
2023;SDS011;1016;48.770;9.154;2022-12-10T00:58:57;38.03;;;18.87;;
2023;SDS011;1016;48.770;9.154;2022-12-10T01:01:31;38.37;;;19.47;;
2023;SDS011;1016;48.770;9.154;2022-12-10T01:04:06;39.80;;;20.87;;
2023;SDS011;1016;48.770;9.154;2022-12-10T01:09:15;37.43;;;19.83;;
2023;SDS011;1016;48.770;9.154;2022-12-10T01:11:43;36.67;;;19.27;;
2023;SDS011;1016;48.770;9.154;2022-12-10T01:14:11;37.23;;;20.40;;
2023;SDS011;1016;48.770;9.154;2022-12-10T01:16:38;36.13;;;20.10;;
2023;SDS011;1016;48.770;9.154;2022-12-10T01:19:04;37.07;;;19.07;;
2023;SDS011;1016;48.770;9.154;2022-12-10T01:21:30;35.47;;;18.63;;
2023;SDS011;1016;48.770;9.154;2022-12-10T01:23:56;36.97;;;19.00;;
2023;SDS011;1016;48.770;9.154;2022-12-10T01:26:23;37.70;;;19.07;;
2023;SDS011;1016;48.770;9.154;2022-12-10T01:28:54;36.70;;;19.60;;
2023;SDS011;1016;48.770;9.154;2022-12-10T01:31:21;37.07;;;19.50;;
2023;SDS011;1016;48.770;9.154;2022-12-10T01:33:50;38.20;;;20.53;;
2023;SDS011;1016;48.770;9.154;2022-12-10T01:36:16;38.40;;;19.37;;
2023;SDS011;1016;48.770;9.154;2022-12-10T01:38:45;39.23;;;20.00;;
2023;SDS011;1016;48.770;9.154;2022-12-10T01:41:18;35.43;;;18.30;;
2023;SDS011;1016;48.770;9.154;2022-12-10T01:46:17;38.07;;;18.23;;
2023;SDS011;1016;48.770;9.154;2022-12-10T01:48:43;36.20;;;18.17;;
2023;SDS011;1016;48.770;9.154;2022-12-10T01:51:09;39.53;;;20.03;;
2023;SDS011;1016;48.770;9.154;2022-12-10T01:53:36;37.60;;;19.73;;
2023;SDS011;1016;48.770;9.154;2022-12-10T01:56:02;40.93;;;20.97;;
2023;SDS011;1016;48.770;9.154;2022-12-10T01:58:28;39.27;;;19.87;;
2023;SDS011;1016;48.770;9.154;2022-12-10T02:03:51;36.23;;;19.33;;
2023;SDS011;1016;48.770;9.154;2022-12-10T02:06:24;38.00;;;19.40;;
2023;SDS011;1016;48.770;9.154;2022-12-10T02:09:04;39.53;;;19.37;;
2023;SDS011;1016;48.770;9.154;2022-12-10T02:11:43;37.03;;;18.83;;
2023;SDS011;1016;48.770;9.154;2022-12-10T02:14:23;36.60;;;17.97;;
2023;SDS011;1016;48.770;9.154;2022-12-10T02:16:58;35.83;;;17.47;;
2023;SDS011;1016;48.770;9.154;2022-12-10T02:22:21;35.97;;;19.40;;
2023;SDS011;1016;48.770;9.154;2022-12-10T02:24:49;34.50;;;17.70;;
2023;SDS011;1016;48.770;9.154;2022-12-10T02:27:26;36.67;;;18.57;;
2023;SDS011;1016;48.770;9.154;2022-12-10T02:29:58;34.47;;;18.37;;
2023;SDS011;1016;48.770;9.154;2022-12-10T02:32:33;36.30;;;19.40;;
2023;SDS011;1016;48.770;9.154;2022-12-10T02:35:05;37.50;;;19.27;;
2023;SDS011;1016;48.770;9.154;2022-12-10T02:37:43;34.20;;;17.90;;
2023;SDS011;1016;48.770;9.154;2022-12-10T02:40:14;36.80;;;17.90;;
2023;SDS011;1016;48.770;9.154;2022-12-10T02:42:43;36.30;;;18.37;;
2023;SDS011;1016;48.770;9.154;2022-12-10T02:45:12;36.40;;;18.60;;
2023;SDS011;1016;48.770;9.154;2022-12-10T02:47:38;36.23;;;18.60;;
2023;SDS011;1016;48.770;9.154;2022-12-10T02:50:05;36.53;;;18.13;;
2023;SDS011;1016;48.770;9.154;2022-12-10T02:52:31;36.73;;;19.17;;
2023;SDS011;1016;48.770;9.154;2022-12-10T02:54:57;34.23;;;17.70;;
2023;SDS011;1016;48.770;9.154;2022-12-10T03:02:31;35.97;;;19.00;;
2023;SDS011;1016;48.770;9.154;2022-12-10T03:05:21;36.40;;;19.03;;
2023;SDS011;1016;48.770;9.154;2022-12-10T03:11:04;35.30;;;18.27;;
2023;SDS011;1016;48.770;9.154;2022-12-10T03:13:38;36.53;;;19.10;;
2023;SDS011;1016;48.770;9.154;2022-12-10T03:16:35;35.30;;;17.03;;
2023;SDS011;1016;48.770;9.154;2022-12-10T03:19:07;34.47;;;17.30;;
2023;SDS011;1016;48.770;9.154;2022-12-10T03:21:37;37.63;;;17.70;;
2023;SDS011;1016;48.770;9.154;2022-12-10T03:24:06;36.40;;;17.13;;
2023;SDS011;1016;48.770;9.154;2022-12-10T03:26:33;37.63;;;18.20;;
2023;SDS011;1016;48.770;9.154;2022-12-10T03:29:01;37.30;;;19.40;;
2023;SDS011;1016;48.770;9.154;2022-12-10T03:31:37;37.77;;;18.13;;
2023;SDS011;1016;48.770;9.154;2022-12-10T03:34:04;34.10;;;18.17;;
2023;SDS011;1016;48.770;9.154;2022-12-10T03:36:31;34.07;;;17.47;;
2023;SDS011;1016;48.770;9.154;2022-12-10T03:38:58;38.57;;;19.13;;
2023;SDS011;1016;48.770;9.154;2022-12-10T03:41:24;35.43;;;18.60;;
2023;SDS011;1016;48.770;9.154;2022-12-10T03:43:50;37.50;;;18.20;;
2023;SDS011;1016;48.770;9.154;2022-12-10T03:46:29;37.40;;;17.47;;
2023;SDS011;1016;48.770;9.154;2022-12-10T03:48:56;34.87;;;18.07;;
2023;SDS011;1016;48.770;9.154;2022-12-10T03:51:24;37.07;;;18.00;;
2023;SDS011;1016;48.770;9.154;2022-12-10T03:53:49;35.37;;;17.83;;
2023;SDS011;1016;48.770;9.154;2022-12-10T03:56:16;33.30;;;17.43;;
2023;SDS011;1016;48.770;9.154;2022-12-10T03:58:42;34.30;;;17.90;;
2023;SDS011;1016;48.770;9.154;2022-12-10T04:01:08;37.63;;;18.57;;
2023;SDS011;1016;48.770;9.154;2022-12-10T04:03:34;34.63;;;17.07;;
2023;SDS011;1016;48.770;9.154;2022-12-10T04:06:02;37.43;;;18.63;;
2023;SDS011;1016;48.770;9.154;2022-12-10T04:08:29;37.80;;;17.47;;
2023;SDS011;1016;48.770;9.154;2022-12-10T04:10:55;34.10;;;17.87;;
2023;SDS011;1016;48.770;9.154;2022-12-10T04:13:34;34.20;;;17.43;;
2023;SDS011;1016;48.770;9.154;2022-12-10T04:16:19;34.93;;;17.80;;
2023;SDS011;1016;48.770;9.154;2022-12-10T04:18:52;36.37;;;17.87;;
2023;SDS011;1016;48.770;9.154;2022-12-10T04:21:25;34.97;;;16.53;;
2023;SDS011;1016;48.770;9.154;2022-12-10T04:24:11;33.33;;;16.63;;
2023;SDS011;1016;48.770;9.154;2022-12-10T04:26:57;35.17;;;17.40;;
2023;SDS011;1016;48.770;9.154;2022-12-10T04:29:25;36.50;;;17.20;;
2023;SDS011;1016;48.770;9.154;2022-12-10T04:31:52;35.40;;;17.33;;
2023;SDS011;1016;48.770;9.154;2022-12-10T04:34:18;35.33;;;17.37;;
2023;SDS011;1016;48.770;9.154;2022-12-10T04:36:44;36.50;;;18.00;;
2023;SDS011;1016;48.770;9.154;2022-12-10T04:39:10;36.40;;;17.97;;
2023;SDS011;1016;48.770;9.154;2022-12-10T04:41:37;36.13;;;17.20;;
2023;SDS011;1016;48.770;9.154;2022-12-10T04:44:06;34.20;;;16.57;;
2023;SDS011;1016;48.770;9.154;2022-12-10T04:46:32;33.67;;;17.10;;
2023;SDS011;1016;48.770;9.154;2022-12-10T04:48:57;34.50;;;17.60;;
2023;SDS011;1016;48.770;9.154;2022-12-10T04:51:23;34.23;;;16.77;;
2023;SDS011;1016;48.770;9.154;2022-12-10T04:53:48;37.20;;;17.80;;
2023;SDS011;1016;48.770;9.154;2022-12-10T04:56:14;37.80;;;18.07;;
2023;SDS011;1016;48.770;9.154;2022-12-10T04:58:39;33.53;;;16.27;;
2023;SDS011;1016;48.770;9.154;2022-12-10T05:01:06;35.53;;;17.80;;
2023;SDS011;1016;48.770;9.154;2022-12-10T05:03:34;36.97;;;17.97;;
2023;SDS011;1016;48.770;9.154;2022-12-10T05:06:01;35.00;;;17.73;;
2023;SDS011;1016;48.770;9.154;2022-12-10T05:08:27;34.97;;;18.13;;
2023;SDS011;1016;48.770;9.154;2022-12-10T05:10:54;36.10;;;19.07;;
2023;SDS011;1016;48.770;9.154;2022-12-10T05:13:19;36.90;;;17.90;;
2023;SDS011;1016;48.770;9.154;2022-12-10T05:15:45;35.03;;;17.43;;
2023;SDS011;1016;48.770;9.154;2022-12-10T05:18:10;36.20;;;18.37;;
2023;SDS011;1016;48.770;9.154;2022-12-10T05:20:36;38.60;;;18.50;;
2023;SDS011;1016;48.770;9.154;2022-12-10T05:23:01;36.27;;;18.03;;
2023;SDS011;1016;48.770;9.154;2022-12-10T05:25:46;36.37;;;18.27;;
2023;SDS011;1016;48.770;9.154;2022-12-10T05:28:20;38.00;;;18.60;;
2023;SDS011;1016;48.770;9.154;2022-12-10T05:30:47;35.33;;;19.10;;
2023;SDS011;1016;48.770;9.154;2022-12-10T05:33:13;40.77;;;19.80;;
2023;SDS011;1016;48.770;9.154;2022-12-10T05:35:39;36.80;;;18.73;;
2023;SDS011;1016;48.770;9.154;2022-12-10T05:38:05;38.43;;;18.60;;
2023;SDS011;1016;48.770;9.154;2022-12-10T05:40:37;34.33;;;18.57;;
2023;SDS011;1016;48.770;9.154;2022-12-10T05:43:02;36.70;;;18.20;;
2023;SDS011;1016;48.770;9.154;2022-12-10T05:45:28;37.87;;;19.30;;
2023;SDS011;1016;48.770;9.154;2022-12-10T05:47:53;33.50;;;18.00;;
2023;SDS011;1016;48.770;9.154;2022-12-10T05:50:19;34.97;;;17.50;;
2023;SDS011;1016;48.770;9.154;2022-12-10T05:52:44;38.53;;;19.47;;
2023;SDS011;1016;48.770;9.154;2022-12-10T05:55:10;37.87;;;18.67;;
2023;SDS011;1016;48.770;9.154;2022-12-10T05:57:36;35.80;;;18.40;;
2023;SDS011;1016;48.770;9.154;2022-12-10T06:00:05;37.27;;;18.73;;
2023;SDS011;1016;48.770;9.154;2022-12-10T06:02:33;37.97;;;18.30;;
2023;SDS011;1016;48.770;9.154;2022-12-10T06:04:59;35.57;;;17.77;;
2023;SDS011;1016;48.770;9.154;2022-12-10T06:07:25;35.13;;;18.27;;
2023;SDS011;1016;48.770;9.154;2022-12-10T06:09:50;40.73;;;19.27;;
2023;SDS011;1016;48.770;9.154;2022-12-10T06:12:16;39.23;;;19.07;;
2023;SDS011;1016;48.770;9.154;2022-12-10T06:14:41;34.80;;;18.30;;
2023;SDS011;1016;48.770;9.154;2022-12-10T06:17:07;34.90;;;17.70;;
2023;SDS011;1016;48.770;9.154;2022-12-10T06:19:32;40.37;;;17.73;;
2023;SDS011;1016;48.770;9.154;2022-12-10T06:21:58;37.30;;;18.47;;
2023;SDS011;1016;48.770;9.154;2022-12-10T06:24:24;35.53;;;18.50;;
2023;SDS011;1016;48.770;9.154;2022-12-10T06:26:49;36.60;;;18.67;;
2023;SDS011;1016;48.770;9.154;2022-12-10T06:29:16;36.47;;;18.67;;
2023;SDS011;1016;48.770;9.154;2022-12-10T06:31:41;37.17;;;18.97;;
2023;SDS011;1016;48.770;9.154;2022-12-10T06:34:07;33.90;;;17.03;;
2023;SDS011;1016;48.770;9.154;2022-12-10T06:36:32;38.20;;;19.13;;
2023;SDS011;1016;48.770;9.154;2022-12-10T06:38:58;35.63;;;18.20;;
2023;SDS011;1016;48.770;9.154;2022-12-10T06:41:23;37.17;;;17.80;;
2023;SDS011;1016;48.770;9.154;2022-12-10T06:43:49;35.57;;;18.27;;
2023;SDS011;1016;48.770;9.154;2022-12-10T06:46:15;36.87;;;17.97;;
2023;SDS011;1016;48.770;9.154;2022-12-10T06:48:43;33.80;;;17.87;;
2023;SDS011;1016;48.770;9.154;2022-12-10T06:51:10;38.37;;;19.17;;
2023;SDS011;1016;48.770;9.154;2022-12-10T06:53:36;33.33;;;16.97;;
2023;SDS011;1016;48.770;9.154;2022-12-10T06:56:03;36.40;;;18.77;;
2023;SDS011;1016;48.770;9.154;2022-12-10T06:58:30;34.30;;;18.60;;
2023;SDS011;1016;48.770;9.154;2022-12-10T07:01:04;35.13;;;18.13;;
2023;SDS011;1016;48.770;9.154;2022-12-10T07:03:30;40.33;;;18.50;;
2023;SDS011;1016;48.770;9.154;2022-12-10T07:05:59;35.70;;;17.70;;
2023;SDS011;1016;48.770;9.154;2022-12-10T07:08:25;34.70;;;17.83;;
2023;SDS011;1016;48.770;9.154;2022-12-10T07:10:51;38.00;;;19.17;;
2023;SDS011;1016;48.770;9.154;2022-12-10T07:13:17;34.93;;;18.50;;
2023;SDS011;1016;48.770;9.154;2022-12-10T07:15:43;36.03;;;18.37;;
2023;SDS011;1016;48.770;9.154;2022-12-10T07:18:08;37.37;;;18.20;;
2023;SDS011;1016;48.770;9.154;2022-12-10T07:20:34;38.90;;;19.50;;
2023;SDS011;1016;48.770;9.154;2022-12-10T07:22:59;36.07;;;18.10;;
2023;SDS011;1016;48.770;9.154;2022-12-10T07:25:25;35.97;;;18.03;;
2023;SDS011;1016;48.770;9.154;2022-12-10T07:27:50;37.53;;;18.97;;
2023;SDS011;1016;48.770;9.154;2022-12-10T07:30:16;35.90;;;18.03;;
2023;SDS011;1016;48.770;9.154;2022-12-10T07:32:41;34.90;;;17.07;;
2023;SDS011;1016;48.770;9.154;2022-12-10T07:35:07;36.33;;;17.87;;
2023;SDS011;1016;48.770;9.154;2022-12-10T07:37:33;36.83;;;17.93;;
2023;SDS011;1016;48.770;9.154;2022-12-10T07:39:58;34.70;;;18.23;;
2023;SDS011;1016;48.770;9.154;2022-12-10T07:42:24;35.57;;;18.00;;
2023;SDS011;1016;48.770;9.154;2022-12-10T07:44:49;38.50;;;18.27;;
2023;SDS011;1016;48.770;9.154;2022-12-10T07:47:15;34.80;;;18.77;;
2023;SDS011;1016;48.770;9.154;2022-12-10T07:49:41;35.40;;;17.77;;
2023;SDS011;1016;48.770;9.154;2022-12-10T07:52:07;35.20;;;18.47;;
2023;SDS011;1016;48.770;9.154;2022-12-10T07:54:33;35.57;;;18.00;;
2023;SDS011;1016;48.770;9.154;2022-12-10T07:56:58;37.40;;;18.77;;
2023;SDS011;1016;48.770;9.154;2022-12-10T07:59:24;38.17;;;18.77;;
2023;SDS011;1016;48.770;9.154;2022-12-10T08:01:49;36.97;;;17.77;;
2023;SDS011;1016;48.770;9.154;2022-12-10T08:04:15;35.40;;;18.30;;
2023;SDS011;1016;48.770;9.154;2022-12-10T08:06:40;35.93;;;19.03;;
2023;SDS011;1016;48.770;9.154;2022-12-10T08:09:06;37.60;;;18.30;;
2023;SDS011;1016;48.770;9.154;2022-12-10T08:11:32;37.60;;;19.90;;
2023;SDS011;1016;48.770;9.154;2022-12-10T08:13:57;36.77;;;19.00;;
2023;SDS011;1016;48.770;9.154;2022-12-10T08:16:24;37.57;;;20.00;;
2023;SDS011;1016;48.770;9.154;2022-12-10T08:18:51;38.03;;;19.63;;
2023;SDS011;1016;48.770;9.154;2022-12-10T08:21:19;40.23;;;21.33;;
2023;SDS011;1016;48.770;9.154;2022-12-10T08:23:46;41.30;;;21.00;;
2023;SDS011;1016;48.770;9.154;2022-12-10T08:26:13;40.77;;;21.70;;
2023;SDS011;1016;48.770;9.154;2022-12-10T08:28:40;37.10;;;18.87;;
2023;SDS011;1016;48.770;9.154;2022-12-10T08:31:07;37.20;;;20.23;;
2023;SDS011;1016;48.770;9.154;2022-12-10T08:33:37;36.27;;;18.43;;
2023;SDS011;1016;48.770;9.154;2022-12-10T08:36:04;37.37;;;18.87;;
2023;SDS011;1016;48.770;9.154;2022-12-10T08:38:31;38.90;;;19.00;;
2023;SDS011;1016;48.770;9.154;2022-12-10T08:40:58;37.37;;;18.27;;
2023;SDS011;1016;48.770;9.154;2022-12-10T08:43:24;34.63;;;17.80;;
2023;SDS011;1016;48.770;9.154;2022-12-10T08:45:49;36.10;;;18.83;;
2023;SDS011;1016;48.770;9.154;2022-12-10T08:48:15;39.53;;;20.30;;
2023;SDS011;1016;48.770;9.154;2022-12-10T08:50:41;36.33;;;18.70;;
2023;SDS011;1016;48.770;9.154;2022-12-10T08:53:06;34.80;;;18.10;;
2023;SDS011;1016;48.770;9.154;2022-12-10T08:55:32;39.50;;;19.80;;
2023;SDS011;1016;48.770;9.154;2022-12-10T08:58:02;36.37;;;18.50;;
2023;SDS011;1016;48.770;9.154;2022-12-10T09:00:28;38.33;;;19.30;;
2023;SDS011;1016;48.770;9.154;2022-12-10T09:02:53;38.50;;;19.13;;
2023;SDS011;1016;48.770;9.154;2022-12-10T09:05:18;40.53;;;21.53;;
2023;SDS011;1016;48.770;9.154;2022-12-10T09:07:44;36.80;;;20.03;;
2023;SDS011;1016;48.770;9.154;2022-12-10T09:10:10;37.30;;;19.90;;
2023;SDS011;1016;48.770;9.154;2022-12-10T09:12:38;38.47;;;20.87;;
2023;SDS011;1016;48.770;9.154;2022-12-10T09:15:05;40.87;;;20.40;;
2023;SDS011;1016;48.770;9.154;2022-12-10T09:17:34;37.60;;;18.57;;
2023;SDS011;1016;48.770;9.154;2022-12-10T09:20:00;34.70;;;18.20;;
2023;SDS011;1016;48.770;9.154;2022-12-10T09:22:26;34.43;;;18.17;;
2023;SDS011;1016;48.770;9.154;2022-12-10T09:24:51;40.03;;;19.70;;
2023;SDS011;1016;48.770;9.154;2022-12-10T09:27:17;37.03;;;19.40;;
2023;SDS011;1016;48.770;9.154;2022-12-10T09:29:42;36.70;;;19.97;;
2023;SDS011;1016;48.770;9.154;2022-12-10T09:32:08;34.97;;;18.77;;
2023;SDS011;1016;48.770;9.154;2022-12-10T09:34:33;37.67;;;20.67;;
2023;SDS011;1016;48.770;9.154;2022-12-10T09:36:59;35.80;;;19.13;;
2023;SDS011;1016;48.770;9.154;2022-12-10T09:39:24;35.80;;;19.47;;
2023;SDS011;1016;48.770;9.154;2022-12-10T09:41:53;37.20;;;19.70;;
2023;SDS011;1016;48.770;9.154;2022-12-10T09:44:43;35.33;;;18.20;;
2023;SDS011;1016;48.770;9.154;2022-12-10T09:47:14;39.80;;;20.40;;
2023;SDS011;1016;48.770;9.154;2022-12-10T09:52:47;38.87;;;19.83;;
2023;SDS011;1016;48.770;9.154;2022-12-10T09:55:16;37.73;;;20.20;;
2023;SDS011;1016;48.770;9.154;2022-12-10T09:57:45;38.67;;;20.83;;
2023;SDS011;1016;48.770;9.154;2022-12-10T10:00:19;37.33;;;19.73;;
2023;SDS011;1016;48.770;9.154;2022-12-10T10:02:51;39.10;;;20.57;;
2023;SDS011;1016;48.770;9.154;2022-12-10T10:05:24;41.20;;;21.07;;
2023;SDS011;1016;48.770;9.154;2022-12-10T10:07:55;35.83;;;18.67;;
2023;SDS011;1016;48.770;9.154;2022-12-10T10:10:32;38.10;;;19.80;;
2023;SDS011;1016;48.770;9.154;2022-12-10T10:13:01;37.27;;;19.03;;
2023;SDS011;1016;48.770;9.154;2022-12-10T10:15:43;38.70;;;19.10;;
2023;SDS011;1016;48.770;9.154;2022-12-10T10:18:32;37.23;;;20.27;;
2023;SDS011;1016;48.770;9.154;2022-12-10T10:21:13;38.60;;;20.67;;
2023;SDS011;1016;48.770;9.154;2022-12-10T10:23:48;41.20;;;22.20;;
2023;SDS011;1016;48.770;9.154;2022-12-10T10:26:14;39.53;;;20.13;;
2023;SDS011;1016;48.770;9.154;2022-12-10T10:28:40;36.47;;;19.53;;
2023;SDS011;1016;48.770;9.154;2022-12-10T10:31:16;37.97;;;19.30;;
2023;SDS011;1016;48.770;9.154;2022-12-10T10:33:57;35.80;;;19.43;;
2023;SDS011;1016;48.770;9.154;2022-12-10T10:36:29;37.73;;;19.77;;
2023;SDS011;1016;48.770;9.154;2022-12-10T10:39:07;36.40;;;18.40;;
2023;SDS011;1016;48.770;9.154;2022-12-10T10:41:36;36.27;;;18.43;;
2023;SDS011;1016;48.770;9.154;2022-12-10T10:44:04;37.40;;;19.60;;
2023;SDS011;1016;48.770;9.154;2022-12-10T10:46:37;35.60;;;18.67;;
2023;SDS011;1016;48.770;9.154;2022-12-10T10:49:19;37.97;;;19.40;;
2023;SDS011;1016;48.770;9.154;2022-12-10T10:51:50;34.50;;;18.00;;
2023;SDS011;1016;48.770;9.154;2022-12-10T10:54:33;35.50;;;18.40;;
2023;SDS011;1016;48.770;9.154;2022-12-10T11:00:06;39.10;;;18.17;;
2023;SDS011;1016;48.770;9.154;2022-12-10T11:02:36;37.60;;;18.67;;
2023;SDS011;1016;48.770;9.154;2022-12-10T11:05:07;35.73;;;18.10;;
2023;SDS011;1016;48.770;9.154;2022-12-10T11:07:41;39.10;;;18.50;;
2023;SDS011;1016;48.770;9.154;2022-12-10T11:10:18;34.87;;;17.07;;
2023;SDS011;1016;48.770;9.154;2022-12-10T11:13:10;33.53;;;17.23;;
2023;SDS011;1016;48.770;9.154;2022-12-10T11:15:42;34.00;;;17.10;;
2023;SDS011;1016;48.770;9.154;2022-12-10T11:21:02;35.57;;;17.43;;
2023;SDS011;1016;48.770;9.154;2022-12-10T11:23:29;36.30;;;17.83;;
2023;SDS011;1016;48.770;9.154;2022-12-10T11:26:11;35.40;;;17.50;;
2023;SDS011;1016;48.770;9.154;2022-12-10T11:31:31;32.83;;;16.23;;
2023;SDS011;1016;48.770;9.154;2022-12-10T11:34:27;31.67;;;16.10;;
2023;SDS011;1016;48.770;9.154;2022-12-10T11:39:44;35.90;;;16.70;;
2023;SDS011;1016;48.770;9.154;2022-12-10T11:45:44;33.00;;;16.47;;
2023;SDS011;1016;48.770;9.154;2022-12-10T11:50:59;32.73;;;15.70;;
2023;SDS011;1016;48.770;9.154;2022-12-10T11:56:35;33.17;;;16.17;;
2023;SDS011;1016;48.770;9.154;2022-12-10T12:05:17;33.60;;;16.60;;
2023;SDS011;1016;48.770;9.154;2022-12-10T12:08:09;37.07;;;16.67;;
2023;SDS011;1016;48.770;9.154;2022-12-10T12:11:08;35.30;;;16.47;;
2023;SDS011;1016;48.770;9.154;2022-12-10T12:16:20;33.83;;;16.27;;
2023;SDS011;1016;48.770;9.154;2022-12-10T12:19:08;38.20;;;18.13;;
2023;SDS011;1016;48.770;9.154;2022-12-10T12:21:40;36.50;;;17.57;;
2023;SDS011;1016;48.770;9.154;2022-12-10T12:24:19;37.70;;;17.27;;
2023;SDS011;1016;48.770;9.154;2022-12-10T12:27:26;37.60;;;16.90;;
2023;SDS011;1016;48.770;9.154;2022-12-10T12:30:15;36.77;;;18.37;;
2023;SDS011;1016;48.770;9.154;2022-12-10T12:32:54;37.20;;;17.63;;
2023;SDS011;1016;48.770;9.154;2022-12-10T12:46:35;33.13;;;15.83;;
2023;SDS011;1016;48.770;9.154;2022-12-10T12:54:25;34.50;;;16.10;;
2023;SDS011;1016;48.770;9.154;2022-12-10T13:05:12;33.77;;;15.57;;
2023;SDS011;1016;48.770;9.154;2022-12-10T13:07:43;34.93;;;17.27;;
2023;SDS011;1016;48.770;9.154;2022-12-10T13:10:17;33.93;;;16.37;;
2023;SDS011;1016;48.770;9.154;2022-12-10T13:15:35;33.33;;;16.80;;
2023;SDS011;1016;48.770;9.154;2022-12-10T13:20:41;37.13;;;16.27;;
2023;SDS011;1016;48.770;9.154;2022-12-10T13:23:46;33.10;;;17.00;;
2023;SDS011;1016;48.770;9.154;2022-12-10T13:26:25;34.83;;;17.10;;
2023;SDS011;1016;48.770;9.154;2022-12-10T13:28:55;32.97;;;16.60;;
2023;SDS011;1016;48.770;9.154;2022-12-10T13:31:36;36.83;;;17.47;;
2023;SDS011;1016;48.770;9.154;2022-12-10T13:41:32;35.00;;;17.17;;
2023;SDS011;1016;48.770;9.154;2022-12-10T13:44:34;33.97;;;16.77;;
2023;SDS011;1016;48.770;9.154;2022-12-10T13:49:44;36.47;;;17.00;;
2023;SDS011;1016;48.770;9.154;2022-12-10T13:52:29;35.90;;;17.20;;
2023;SDS011;1016;48.770;9.154;2022-12-10T13:55:13;38.13;;;18.50;;
2023;SDS011;1016;48.770;9.154;2022-12-10T14:01:10;37.30;;;17.80;;
2023;SDS011;1016;48.770;9.154;2022-12-10T14:06:24;34.70;;;16.63;;
2023;SDS011;1016;48.770;9.154;2022-12-10T14:11:22;34.83;;;16.90;;
2023;SDS011;1016;48.770;9.154;2022-12-10T14:13:55;34.60;;;16.87;;
2023;SDS011;1016;48.770;9.154;2022-12-10T14:16:23;35.90;;;16.60;;
2023;SDS011;1016;48.770;9.154;2022-12-10T14:18:53;36.10;;;16.57;;
2023;SDS011;1016;48.770;9.154;2022-12-10T14:21:21;40.00;;;19.80;;
2023;SDS011;1016;48.770;9.154;2022-12-10T14:23:49;37.43;;;18.97;;
2023;SDS011;1016;48.770;9.154;2022-12-10T14:26:16;33.80;;;17.00;;
2023;SDS011;1016;48.770;9.154;2022-12-10T14:28:45;36.87;;;17.67;;
2023;SDS011;1016;48.770;9.154;2022-12-10T14:31:14;33.47;;;16.03;;
2023;SDS011;1016;48.770;9.154;2022-12-10T14:33:51;33.97;;;17.30;;
2023;SDS011;1016;48.770;9.154;2022-12-10T14:36:24;36.17;;;15.90;;
2023;SDS011;1016;48.770;9.154;2022-12-10T14:38:53;35.43;;;15.80;;
2023;SDS011;1016;48.770;9.154;2022-12-10T14:41:19;34.73;;;16.63;;
2023;SDS011;1016;48.770;9.154;2022-12-10T14:43:47;33.83;;;16.00;;
2023;SDS011;1016;48.770;9.154;2022-12-10T14:46:24;33.93;;;15.57;;
2023;SDS011;1016;48.770;9.154;2022-12-10T14:48:52;35.97;;;16.23;;
2023;SDS011;1016;48.770;9.154;2022-12-10T14:51:20;35.07;;;16.27;;
2023;SDS011;1016;48.770;9.154;2022-12-10T14:53:48;34.97;;;16.13;;
2023;SDS011;1016;48.770;9.154;2022-12-10T14:56:34;35.27;;;16.10;;
2023;SDS011;1016;48.770;9.154;2022-12-10T15:01:43;33.47;;;16.10;;
2023;SDS011;1016;48.770;9.154;2022-12-10T15:04:14;33.47;;;16.00;;
2023;SDS011;1016;48.770;9.154;2022-12-10T15:06:42;33.00;;;15.50;;
2023;SDS011;1016;48.770;9.154;2022-12-10T15:09:13;34.90;;;15.67;;
2023;SDS011;1016;48.770;9.154;2022-12-10T15:11:53;34.83;;;15.87;;
2023;SDS011;1016;48.770;9.154;2022-12-10T15:14:23;36.43;;;14.90;;
2023;SDS011;1016;48.770;9.154;2022-12-10T15:16:51;36.10;;;17.07;;
2023;SDS011;1016;48.770;9.154;2022-12-10T15:19:21;34.87;;;16.57;;
2023;SDS011;1016;48.770;9.154;2022-12-10T15:21:50;35.07;;;16.80;;
2023;SDS011;1016;48.770;9.154;2022-12-10T15:24:20;35.50;;;15.63;;
2023;SDS011;1016;48.770;9.154;2022-12-10T15:26:51;33.13;;;16.03;;
2023;SDS011;1016;48.770;9.154;2022-12-10T15:34:38;32.40;;;15.27;;
2023;SDS011;1016;48.770;9.154;2022-12-10T15:37:13;31.97;;;14.60;;
2023;SDS011;1016;48.770;9.154;2022-12-10T15:39:47;36.47;;;17.30;;
2023;SDS011;1016;48.770;9.154;2022-12-10T15:42:30;32.57;;;15.53;;
2023;SDS011;1016;48.770;9.154;2022-12-10T15:47:48;33.67;;;15.60;;
2023;SDS011;1016;48.770;9.154;2022-12-10T15:50:14;34.93;;;15.70;;
2023;SDS011;1016;48.770;9.154;2022-12-10T15:52:40;33.03;;;15.50;;
2023;SDS011;1016;48.770;9.154;2022-12-10T15:55:06;32.57;;;15.57;;
2023;SDS011;1016;48.770;9.154;2022-12-10T15:57:36;32.53;;;14.87;;
2023;SDS011;1016;48.770;9.154;2022-12-10T16:00:10;31.80;;;14.50;;
2023;SDS011;1016;48.770;9.154;2022-12-10T16:05:26;33.83;;;14.73;;
2023;SDS011;1016;48.770;9.154;2022-12-10T16:07:54;30.87;;;14.20;;
2023;SDS011;1016;48.770;9.154;2022-12-10T16:10:23;32.17;;;14.43;;
2023;SDS011;1016;48.770;9.154;2022-12-10T16:12:57;31.67;;;14.40;;
2023;SDS011;1016;48.770;9.154;2022-12-10T16:15:26;30.97;;;14.20;;
2023;SDS011;1016;48.770;9.154;2022-12-10T16:17:54;31.07;;;13.50;;
2023;SDS011;1016;48.770;9.154;2022-12-10T16:22:53;28.60;;;13.17;;
2023;SDS011;1016;48.770;9.154;2022-12-10T16:25:20;30.67;;;12.83;;
2023;SDS011;1016;48.770;9.154;2022-12-10T16:27:47;30.97;;;13.67;;
2023;SDS011;1016;48.770;9.154;2022-12-10T16:30:14;31.03;;;13.57;;
2023;SDS011;1016;48.770;9.154;2022-12-10T16:32:48;31.07;;;14.20;;
2023;SDS011;1016;48.770;9.154;2022-12-10T16:35:15;31.50;;;13.37;;
2023;SDS011;1016;48.770;9.154;2022-12-10T16:37:42;34.77;;;14.10;;
2023;SDS011;1016;48.770;9.154;2022-12-10T16:40:10;32.07;;;14.50;;
2023;SDS011;1016;48.770;9.154;2022-12-10T16:42:39;30.80;;;13.80;;
2023;SDS011;1016;48.770;9.154;2022-12-10T16:45:10;35.63;;;14.70;;
2023;SDS011;1016;48.770;9.154;2022-12-10T16:47:42;30.60;;;13.73;;
2023;SDS011;1016;48.770;9.154;2022-12-10T16:50:09;32.07;;;14.10;;
2023;SDS011;1016;48.770;9.154;2022-12-10T16:52:35;31.40;;;14.60;;
2023;SDS011;1016;48.770;9.154;2022-12-10T16:55:00;31.23;;;14.07;;
2023;SDS011;1016;48.770;9.154;2022-12-10T16:57:26;31.27;;;13.50;;
2023;SDS011;1016;48.770;9.154;2022-12-10T16:59:52;31.13;;;13.80;;